»·PEaware :: DAL1989 KSEA-KBOI

DAL1989 :: KSEA-KBOI

FLIGHT INFORMATION

Flight Status: Arrived
Operator:
Delta Air Lines
More flights by this operator :: More flights under this callsign
Pilot: John L. (29598)
Aircraft: AIRBUS A319
(A319)
More flights by this aircraft type
Origin: KSEA Seattle-Tacoma Intl
United States
Destination: KBOI Boise Air Terminal/Gowen
United States
More flights between these airports :: More routes between these airports
Route: SUMMA2 BKE DEVLE KYAAN3
File this flight plan on PilotEdge
Remarks:
Altitude:
(Current/Filed)
37,000ft
Speed:
(Current/Filed)
500kts
Departed: 18-Feb-21 07:19 PM
Arrived: 18-Feb-21 08:13 PM
Distance/Time
Traveled:
346nm/0:53
Distance/Time
To Go:
Arrived

Flight Plot

Page will automatically refresh every two minutes.

Flight plan parsing failed; only flown route is shown


Map Options




Map Legend


Flown Route
Filed Route
Departure Airport
Arrival Airport
Navaid (VOR, NDB)
Fix

Horizontal Profiles

Position Reports

Time Latitude Longitude Heading Altitude Ground
Speed
18-Feb-21 18:47 47.449052 -122.302004 219 435ft 0kts
18-Feb-21 18:48 47.449052 -122.302004 219 435ft 0kts
18-Feb-21 18:49 47.449052 -122.302004 219 435ft 0kts
18-Feb-21 18:50 47.449052 -122.302004 219 435ft 0kts
18-Feb-21 18:51 47.449052 -122.302004 219 435ft 0kts
18-Feb-21 18:52 47.449052 -122.302004 219 435ft 0kts
18-Feb-21 18:53 47.449052 -122.302004 219 435ft 0kts
18-Feb-21 18:54 47.449052 -122.302004 219 435ft 0kts
18-Feb-21 18:55 47.449052 -122.302004 219 435ft 0kts
18-Feb-21 18:56 47.449052 -122.302004 219 435ft 0kts
18-Feb-21 18:57 47.449052 -122.302004 219 435ft 0kts
18-Feb-21 18:58 47.449052 -122.302004 219 435ft 0kts
18-Feb-21 18:59 47.449052 -122.302005 219 435ft 0kts
18-Feb-21 19:00 47.449052 -122.302005 219 435ft 0kts
18-Feb-21 19:01 47.449052 -122.302005 219 435ft 0kts
18-Feb-21 19:02 47.449052 -122.302005 219 435ft 0kts
18-Feb-21 19:03 47.449052 -122.302005 219 435ft 0kts
18-Feb-21 19:04 47.449052 -122.302005 219 435ft 0kts
18-Feb-21 19:05 47.449052 -122.302005 219 435ft 0kts
18-Feb-21 19:06 47.449055 -122.302001 220 435ft 0kts
18-Feb-21 19:07 47.449447 -122.301367 274 435ft 2kts
18-Feb-21 19:08 47.449357 -122.301102 311 435ft 0kts
18-Feb-21 19:09 47.449358 -122.301102 311 435ft 0kts
18-Feb-21 19:10 47.450126 -122.302469 308 435ft 11kts
18-Feb-21 19:11 47.450076 -122.304264 268 435ft 0kts
18-Feb-21 19:12 47.450101 -122.305175 272 435ft 11kts
18-Feb-21 19:13 47.453735 -122.306244 0 435ft 18kts
18-Feb-21 19:14 47.459470 -122.306185 0 435ft 22kts
18-Feb-21 19:15 47.463631 -122.306319 301 435ft 0kts
18-Feb-21 19:16 47.463631 -122.306319 301 435ft 0kts
18-Feb-21 19:17 47.463707 -122.307133 255 435ft 6kts
18-Feb-21 19:18 47.457100 -122.307830 180 435ft 122kts
18-Feb-21 19:19 47.418653 -122.332691 202 3193ft 187kts
18-Feb-21 19:20 47.359939 -122.320629 178 5778ft 251kts
18-Feb-21 19:21 47.288368 -122.312675 181 9449ft 267kts
18-Feb-21 19:22 47.210133 -122.286781 149 11612ft 341kts
18-Feb-21 19:23 47.114560 -122.230350 167 13141ft 404kts
18-Feb-21 19:24 47.006012 -122.178242 166 16052ft 419kts
18-Feb-21 19:25 46.894067 -122.123220 167 18535ft 434kts
18-Feb-21 19:26 46.777716 -122.066339 168 20634ft 450kts
18-Feb-21 19:27 46.656424 -122.006605 164 22549ft 467kts
18-Feb-21 19:28 46.566009 -121.861623 123 24383ft 512kts
18-Feb-21 19:29 46.498209 -121.685818 126 27124ft 493kts
18-Feb-21 19:30 46.428622 -121.512153 127 28516ft 505kts
18-Feb-21 19:31 46.357165 -121.334512 128 29761ft 516kts
18-Feb-21 19:32 46.285213 -121.156028 128 31247ft 515kts
18-Feb-21 19:33 46.212547 -120.977633 129 32527ft 517kts
18-Feb-21 19:34 46.139097 -120.798532 129 33750ft 518kts
18-Feb-21 19:35 46.065684 -120.620801 129 34870ft 519kts
18-Feb-21 19:36 45.991499 -120.442237 129 35916ft 520kts
18-Feb-21 19:38 45.916960 -120.263688 130 36725ft 523kts
18-Feb-21 19:39 45.841583 -120.085118 130 37181ft 523kts
18-Feb-21 19:40 45.766309 -119.907436 130 37184ft 523kts
18-Feb-21 19:41 45.690425 -119.729459 130 37184ft 525kts
18-Feb-21 19:42 45.613977 -119.551356 129 37184ft 527kts
18-Feb-21 19:43 45.537129 -119.373277 129 37181ft 530kts
18-Feb-21 19:44 45.459847 -119.194708 130 37174ft 530kts
18-Feb-21 19:45 45.382018 -119.016574 130 37167ft 532kts
18-Feb-21 19:46 45.303831 -118.838811 130 37127ft 533kts
18-Feb-21 19:47 45.225047 -118.660759 130 37075ft 534kts
18-Feb-21 19:48 45.146215 -118.483569 131 36242ft 526kts
18-Feb-21 19:49 45.067356 -118.307446 132 33602ft 522kts
18-Feb-21 19:50 44.989661 -118.135000 131 30588ft 520kts
18-Feb-21 19:51 44.913020 -117.965917 130 28066ft 500kts
18-Feb-21 19:52 44.835243 -117.809883 144 25814ft 463kts
18-Feb-21 19:53 44.735213 -117.712137 157 24201ft 430kts
18-Feb-21 19:54 44.633439 -117.622134 156 24193ft 433kts
18-Feb-21 19:55 44.531622 -117.531423 156 24192ft 434kts
18-Feb-21 19:56 44.429969 -117.441185 156 24186ft 433kts
18-Feb-21 19:57 44.332964 -117.355476 155 19425ft 417kts
18-Feb-21 19:58 44.239504 -117.272648 155 17419ft 388kts
18-Feb-21 19:59 44.156854 -117.176623 142 15666ft 384kts
18-Feb-21 20:00 44.080504 -117.076281 142 13890ft 372kts
18-Feb-21 20:01 44.006616 -116.980003 142 12149ft 359kts
18-Feb-21 20:01 43.951229 -116.895255 128 10840ft 350kts
18-Feb-21 20:03 43.892264 -116.772803 127 10076ft 289kts
18-Feb-21 20:04 43.848367 -116.683212 126 8967ft 270kts
18-Feb-21 20:04 43.807117 -116.620667 143 7931ft 265kts
18-Feb-21 20:05 43.748853 -116.558996 142 6654ft 263kts
18-Feb-21 20:07 43.684172 -116.490371 142 5258ft 223kts
18-Feb-21 20:08 43.637334 -116.437926 126 4993ft 216kts
18-Feb-21 20:08 43.618339 -116.380457 113 4995ft 176kts
18-Feb-21 20:09 43.598807 -116.320656 116 4226ft 150kts
18-Feb-21 20:11 43.580554 -116.266531 116 3390ft 131kts
18-Feb-21 20:11 43.567747 -116.229550 115 2851ft 120kts
18-Feb-21 20:12 43.561998 -116.212844 112 2863ft 0kts
18-Feb-21 20:14 43.562405 -116.211283 22 2866ft 0kts
18-Feb-21 20:14 43.563364 -116.213338 297 2864ft 14kts
18-Feb-21 20:15 43.565621 -116.217813 295 2860ft 10kts
18-Feb-21 20:16 43.566646 -116.219304 24 2855ft 6kts
18-Feb-21 20:17 43.566756 -116.219234 26 2855ft 0kts
18-Feb-21 20:18 43.566756 -116.219234 26 2855ft 0kts

Navigation Log

Ident Type
Flight plan parsing failed, navigation log unavailable